Time,TemperatureF,DewpointF,PressureIn,WindDirection,WindDirectionDegrees,WindSpeedMPH,WindSpeedGustMPH,Humidity,HourlyPrecipIn,Conditions,Clouds,dailyrainin,SoftwareType,DateUTC
2013-06-01 00:02:00,72.0,72.0,29.83,SW,222,0.0,3.0,99,0.00,,,0.24,,2013-05-31 14:02:00,
2013-06-01 00:11:00,72.0,72.0,29.83,SW,222,0.0,3.0,99,0.00,,,0.24,,2013-05-31 14:11:00,
2013-06-01 00:21:00,72.0,72.0,29.82,SW,225,1.0,3.0,99,0.01,,,0.25,,2013-05-31 14:21:00,
2013-06-01 00:32:00,71.0,71.0,29.82,SW,236,1.0,4.0,99,0.01,,,0.25,,2013-05-31 14:32:00,
2013-06-01 00:40:00,72.0,72.0,29.82,SW,229,2.0,4.0,99,0.00,,,0.25,,2013-05-31 14:40:00,
2013-06-01 00:42:00,71.0,71.0,29.82,SW,236,1.0,4.0,99,0.01,,,0.25,,2013-05-31 14:42:00,
2013-06-01 00:52:00,72.0,72.0,29.81,WSW,241,0.0,4.0,99,0.01,,,0.25,,2013-05-31 14:52:00,
2013-06-01 01:01:00,72.0,72.0,29.82,SW,229,2.0,4.0,99,0.00,,,0.25,,2013-05-31 15:01:00,
2013-06-01 01:11:00,72.0,72.0,29.82,SW,229,2.0,4.0,99,0.00,,,0.25,,2013-05-31 15:11:00,
2013-06-01 01:21:00,72.0,72.0,29.82,SW,229,2.0,4.0,99,0.00,,,0.25,,2013-05-31 15:21:00,
2013-06-01 01:33:00,72.0,72.0,29.82,SW,229,2.0,4.0,99,0.00,,,0.25,,2013-05-31 15:33:00,
2013-06-01 01:53:00,72.0,72.0,29.81,WSW,237,1.0,4.0,99,0.00,,,0.22,,2013-05-31 15:53:00,
2013-06-01 02:03:00,71.0,71.0,29.81,WSW,241,1.0,2.0,99,0.06,,,0.28,,2013-05-31 16:03:00,
2013-06-01 02:12:00,71.0,71.0,29.81,WSW,241,1.0,2.0,99,0.06,,,0.28,,2013-05-31 16:12:00,
2013-06-01 02:22:00,71.0,71.0,29.81,WSW,241,1.0,2.0,99,0.06,,,0.28,,2013-05-31 16:22:00,
2013-06-01 02:33:00,70.0,70.0,29.80,SW,225,2.0,2.0,99,0.11,,,0.33,,2013-05-31 16:33:00,
2013-06-01 02:42:00,70.0,70.0,29.80,SW,225,2.0,2.0,99,0.11,,,0.33,,2013-05-31 16:42:00,
2013-06-01 02:52:00,70.0,70.0,29.78,SW,225,0.0,3.0,99,0.07,,,0.32,,2013-05-31 16:52:00,
2013-06-01 03:02:00,70.0,70.0,29.79,SW,230,1.0,4.0,99,0.05,,,0.32,,2013-05-31 17:02:00,
2013-06-01 03:12:00,70.0,70.0,29.79,SW,230,1.0,4.0,99,0.05,,,0.32,,2013-05-31 17:12:00,
2013-06-01 03:22:00,70.0,70.0,29.78,SW,225,0.0,3.0,99,0.02,,,0.32,,2013-05-31 17:22:00,
2013-06-01 03:31:00,70.0,70.0,29.79,SW,225,0.0,4.0,99,0.00,,,0.32,,2013-05-31 17:31:00,
2013-06-01 03:40:00,70.0,70.0,29.78,SW,234,0.0,2.0,99,0.00,,,0.30,,2013-05-31 17:40:00,
2013-06-01 03:42:00,70.0,70.0,29.79,SW,225,0.0,4.0,99,0.00,,,0.32,,2013-05-31 17:42:00,
2013-06-01 03:52:00,70.0,70.0,29.78,SW,226,0.0,4.0,99,0.00,,,0.31,,2013-05-31 17:52:00,
2013-06-01 04:01:00,70.0,70.0,29.78,SW,234,0.0,2.0,99,0.00,,,0.30,,2013-05-31 18:01:00,
2013-06-01 04:11:00,70.0,70.0,29.78,SW,234,0.0,2.0,99,0.00,,,0.30,,2013-05-31 18:11:00,
2013-06-01 04:22:00,70.0,70.0,29.78,SW,234,0.0,2.0,99,0.00,,,0.30,,2013-05-31 18:22:00,
2013-06-01 04:31:00,70.0,70.0,29.78,SW,234,0.0,2.0,99,0.00,,,0.30,,2013-05-31 18:31:00,
2013-06-01 04:52:00,70.0,70.0,29.78,SW,230,0.0,2.0,99,0.00,,,0.28,,2013-05-31 18:52:00,
2013-06-01 05:01:00,70.0,70.0,29.78,SW,229,0.0,3.0,99,0.00,,,0.28,,2013-05-31 19:01:00,
2013-06-01 05:11:00,70.0,70.0,29.78,SW,229,0.0,3.0,99,0.00,,,0.28,,2013-05-31 19:11:00,
2013-06-01 05:22:00,70.0,70.0,29.79,SW,227,2.0,4.0,99,0.01,,,0.28,,2013-05-31 19:22:00,
2013-06-01 05:31:00,70.0,70.0,29.79,SW,227,2.0,4.0,99,0.01,,,0.28,,2013-05-31 19:31:00,
2013-06-01 05:42:00,70.0,70.0,29.79,SW,227,2.0,4.0,99,0.01,,,0.28,,2013-05-31 19:42:00,
2013-06-01 05:52:00,71.0,71.0,29.79,WSW,240,0.0,3.0,99,0.01,,,0.24,,2013-05-31 19:52:00,
2013-06-01 06:01:00,71.0,71.0,29.79,WSW,240,0.0,3.0,99,0.01,,,0.24,,2013-05-31 20:01:00,
2013-06-01 06:11:00,71.0,71.0,29.79,WSW,240,0.0,3.0,99,0.01,,,0.24,,2013-05-31 20:11:00,
2013-06-01 06:22:00,71.0,71.0,29.80,SW,222,2.0,4.0,99,0.00,,,0.20,,2013-05-31 20:22:00,
2013-06-01 06:31:00,71.0,71.0,29.80,SW,236,2.0,4.0,99,0.00,,,0.19,,2013-05-31 20:31:00,
2013-06-01 06:42:00,71.0,71.0,29.80,SW,236,2.0,4.0,99,0.00,,,0.19,,2013-05-31 20:42:00,
2013-06-01 06:52:00,71.0,71.0,29.80,SW,236,2.0,4.0,99,0.00,,,0.19,,2013-05-31 20:52:00,
2013-06-01 07:01:00,71.0,71.0,29.80,SW,231,1.0,4.0,99,0.00,,,0.19,,2013-05-31 21:01:00,
2013-06-01 07:11:00,71.0,71.0,29.80,SW,231,1.0,4.0,99,0.00,,,0.19,,2013-05-31 21:11:00,
2013-06-01 07:22:00,71.0,71.0,29.81,WSW,256,1.0,6.0,99,0.00,,,0.19,,2013-05-31 21:22:00,
2013-06-01 07:32:00,72.0,72.0,29.82,WSW,245,2.0,5.0,99,0.00,,,0.19,,2013-05-31 21:32:00,
2013-06-01 07:42:00,72.0,72.0,29.82,WSW,245,2.0,5.0,99,0.00,,,0.19,,2013-05-31 21:42:00,
2013-06-01 07:54:00,72.0,72.0,29.82,WSW,245,2.0,5.0,99,0.00,,,0.19,,2013-05-31 21:54:00,
2013-06-01 08:02:00,74.0,74.0,29.82,WSW,240,1.0,4.0,99,0.00,,,0.19,,2013-05-31 22:02:00,
2013-06-01 08:12:00,74.0,74.0,29.82,WSW,240,1.0,4.0,99,0.00,,,0.19,,2013-05-31 22:12:00,
2013-06-01 08:20:00,79.0,79.0,29.83,WSW,237,2.0,6.0,99,0.00,,,0.19,,2013-05-31 22:20:00,
2013-06-01 08:22:00,73.0,73.0,29.82,WSW,246,0.0,3.0,99,0.00,,,0.19,,2013-05-31 22:22:00,
2013-06-01 08:33:00,78.0,78.0,29.83,SW,235,1.0,3.0,99,0.00,,,0.19,,2013-05-31 22:33:00,
2013-06-01 08:41:00,79.0,79.0,29.83,WSW,237,2.0,6.0,99,0.00,,,0.19,,2013-05-31 22:41:00,
2013-06-01 08:52:00,79.0,79.0,29.83,WSW,237,2.0,6.0,99,0.00,,,0.19,,2013-05-31 22:52:00,
2013-06-01 09:02:00,79.0,79.0,29.83,WSW,237,2.0,6.0,99,0.00,,,0.19,,2013-05-31 23:02:00,
2013-06-01 09:12:00,79.0,79.0,29.83,WSW,237,2.0,6.0,99,0.00,,,0.19,,2013-05-31 23:12:00,
2013-06-01 09:32:00,83.0,80.0,29.85,WSW,242,3.0,6.0,90,0.00,,,0.19,,2013-05-31 23:32:00,
2013-06-01 09:42:00,80.0,80.0,29.85,WSW,249,2.0,8.0,99,0.00,,,0.19,,2013-05-31 23:42:00,
2013-06-01 09:52:00,80.0,80.0,29.85,WSW,249,2.0,8.0,99,0.00,,,0.19,,2013-05-31 23:52:00,
2013-06-01 10:01:00,84.0,82.0,29.85,WSW,244,1.0,6.0,93,0.00,,,0.19,,2013-06-01 00:01:00,
2013-06-01 10:11:00,84.0,82.0,29.85,WSW,244,1.0,6.0,93,0.00,,,0.19,,2013-06-01 00:11:00,
2013-06-01 10:22:00,86.0,80.0,29.85,SW,229,2.0,7.0,83,0.00,,,0.19,,2013-06-01 00:22:00,
2013-06-01 10:31:00,86.0,80.0,29.85,SW,229,2.0,7.0,83,0.00,,,0.19,,2013-06-01 00:31:00,
2013-06-01 10:42:00,87.0,78.0,29.84,SW,225,2.0,4.0,74,0.00,,,0.19,,2013-06-01 00:42:00,
2013-06-01 10:52:00,87.0,78.0,29.84,SW,225,2.0,4.0,74,0.00,,,0.19,,2013-06-01 00:52:00,
2013-06-01 11:01:00,87.0,78.0,29.84,SW,225,2.0,4.0,74,0.00,,,0.19,,2013-06-01 01:01:00,
2013-06-01 11:11:00,87.0,78.0,29.84,SW,225,2.0,4.0,74,0.00,,,0.19,,2013-06-01 01:11:00,
2013-06-01 11:21:00,86.0,78.0,29.82,WSW,246,2.0,8.0,77,0.00,,,0.18,,2013-06-01 01:21:00,
2013-06-01 11:31:00,86.0,78.0,29.82,WSW,246,2.0,8.0,77,0.00,,,0.18,,2013-06-01 01:31:00,
2013-06-01 11:42:00,88.0,77.0,29.81,SW,234,1.0,5.0,69,0.00,,,0.18,,2013-06-01 01:42:00,
2013-06-01 11:52:00,88.0,77.0,29.81,SW,234,1.0,5.0,69,0.00,,,0.18,,2013-06-01 01:52:00,
2013-06-01 12:01:00,86.0,76.0,29.80,SW,230,2.0,6.0,73,0.00,,,0.18,,2013-06-01 02:01:00,
2013-06-01 12:11:00,87.0,77.0,29.80,SW,226,1.0,5.0,73,0.00,,,0.18,,2013-06-01 02:11:00,
2013-06-01 12:21:00,87.0,77.0,29.80,SW,226,1.0,5.0,73,0.00,,,0.18,,2013-06-01 02:21:00,
2013-06-01 12:31:00,88.0,78.0,29.80,WSW,244,2.0,8.0,72,0.00,,,0.18,,2013-06-01 02:31:00,
2013-06-01 12:42:00,88.0,78.0,29.80,WSW,244,2.0,8.0,72,0.00,,,0.18,,2013-06-01 02:42:00,
2013-06-01 12:51:00,88.0,78.0,29.80,WSW,244,2.0,8.0,72,0.00,,,0.18,,2013-06-01 02:51:00,
2013-06-01 13:01:00,88.0,78.0,29.80,WSW,244,2.0,8.0,72,0.00,,,0.18,,2013-06-01 03:01:00,
2013-06-01 13:11:00,78.0,78.0,29.79,SW,236,2.0,10.0,99,0.00,,,0.18,,2013-06-01 03:11:00,
2013-06-01 13:22:00,78.0,78.0,29.79,SW,236,2.0,10.0,99,0.00,,,0.18,,2013-06-01 03:22:00,
2013-06-01 13:33:00,78.0,78.0,29.79,SW,236,2.0,10.0,99,0.00,,,0.18,,2013-06-01 03:33:00,
2013-06-01 13:43:00,80.0,80.0,29.77,SW,231,3.0,6.0,99,0.00,,,0.18,,2013-06-01 03:43:00,
2013-06-01 13:53:00,80.0,80.0,29.77,SW,231,3.0,6.0,99,0.00,,,0.18,,2013-06-01 03:53:00,
2013-06-01 14:02:00,80.0,80.0,29.77,SW,231,3.0,6.0,99,0.00,,,0.18,,2013-06-01 04:02:00,
2013-06-01 14:12:00,80.0,80.0,29.77,SW,231,3.0,6.0,99,0.00,,,0.18,,2013-06-01 04:12:00,
2013-06-01 14:22:00,78.0,78.0,29.76,WSW,243,2.0,8.0,99,0.00,,,0.18,,2013-06-01 04:22:00,
2013-06-01 14:33:00,78.0,78.0,29.76,WSW,247,3.0,7.0,99,0.00,,,0.18,,2013-06-01 04:33:00,
2013-06-01 14:42:00,77.0,77.0,29.76,SW,235,2.0,11.0,99,0.00,,,0.18,,2013-06-01 04:42:00,
2013-06-01 14:53:00,77.0,77.0,29.76,SW,235,2.0,11.0,99,0.00,,,0.18,,2013-06-01 04:53:00,
2013-06-01 15:02:00,76.0,76.0,29.76,SW,228,2.0,5.0,99,0.00,,,0.18,,2013-06-01 05:02:00,
2013-06-01 15:12:00,76.0,76.0,29.76,SW,228,2.0,5.0,99,0.00,,,0.18,,2013-06-01 05:12:00,
2013-06-01 15:22:00,76.0,76.0,29.76,SW,228,2.0,5.0,99,0.00,,,0.18,,2013-06-01 05:22:00,
2013-06-01 15:32:00,76.0,76.0,29.76,SW,228,2.0,5.0,99,0.00,,,0.18,,2013-06-01 05:32:00,
2013-06-01 15:42:00,79.0,79.0,29.74,SW,225,2.0,5.0,99,0.00,,,0.18,,2013-06-01 05:42:00,
2013-06-01 15:52:00,79.0,79.0,29.74,SW,225,2.0,5.0,99,0.00,,,0.18,,2013-06-01 05:52:00,
2013-06-01 16:01:00,79.0,79.0,29.74,SW,225,2.0,5.0,99,0.00,,,0.18,,2013-06-01 06:01:00,
2013-06-01 16:12:00,79.0,79.0,29.74,SW,225,2.0,5.0,99,0.00,,,0.18,,2013-06-01 06:12:00,
2013-06-01 16:22:00,78.0,78.0,29.75,WSW,247,2.0,5.0,99,0.00,,,0.18,,2013-06-01 06:22:00,
2013-06-01 16:32:00,77.0,77.0,29.75,WSW,243,2.0,7.0,99,0.00,,,0.18,,2013-06-01 06:32:00,
2013-06-01 16:42:00,76.0,76.0,29.75,SW,236,0.0,4.0,99,0.00,,,0.18,,2013-06-01 06:42:00,
2013-06-01 16:52:00,76.0,76.0,29.75,SW,236,0.0,4.0,99,0.00,,,0.18,,2013-06-01 06:52:00,
2013-06-01 17:01:00,76.0,76.0,29.75,SW,236,0.0,4.0,99,0.00,,,0.18,,2013-06-01 07:01:00,
2013-06-01 17:11:00,76.0,76.0,29.75,SW,236,0.0,4.0,99,0.00,,,0.18,,2013-06-01 07:11:00,
2013-06-01 17:21:00,76.0,76.0,29.75,SW,235,1.0,4.0,99,0.00,,,0.18,,2013-06-01 07:21:00,
2013-06-01 17:31:00,76.0,76.0,29.75,SW,235,1.0,4.0,99,0.00,,,0.18,,2013-06-01 07:31:00,
2013-06-01 17:42:00,75.0,75.0,29.76,WSW,241,1.0,3.0,99,0.00,,,0.13,,2013-06-01 07:42:00,
2013-06-01 17:52:00,75.0,75.0,29.76,WSW,241,1.0,3.0,99,0.00,,,0.13,,2013-06-01 07:52:00,
2013-06-01 18:02:00,75.0,75.0,29.76,WSW,241,1.0,3.0,99,0.00,,,0.13,,2013-06-01 08:02:00,
2013-06-01 18:11:00,75.0,75.0,29.76,WSW,241,1.0,3.0,99,0.00,,,0.13,,2013-06-01 08:11:00,
2013-06-01 18:32:00,74.0,74.0,29.77,WSW,240,2.0,4.0,99,0.00,,,0.13,,2013-06-01 08:32:00,
2013-06-01 18:42:00,74.0,74.0,29.78,SW,229,0.0,3.0,99,0.00,,,0.13,,2013-06-01 08:42:00,
2013-06-01 18:52:00,74.0,74.0,29.78,SW,229,0.0,3.0,99,0.00,,,0.13,,2013-06-01 08:52:00,
2013-06-01 19:01:00,74.0,74.0,29.78,WSW,254,2.0,6.0,99,0.00,,,0.13,,2013-06-01 09:01:00,
2013-06-01 19:12:00,74.0,74.0,29.78,WSW,254,2.0,6.0,99,0.00,,,0.13,,2013-06-01 09:12:00,
2013-06-01 19:21:00,73.0,73.0,29.78,WSW,245,2.0,4.0,99,0.00,,,0.13,,2013-06-01 09:21:00,
2013-06-01 19:32:00,73.0,73.0,29.78,SW,228,1.0,4.0,99,0.00,,,0.13,,2013-06-01 09:32:00,
2013-06-01 19:42:00,73.0,73.0,29.78,SW,228,1.0,4.0,99,0.00,,,0.13,,2013-06-01 09:42:00,
2013-06-01 19:53:00,73.0,73.0,29.79,SW,225,0.0,3.0,99,0.00,,,0.13,,2013-06-01 09:53:00,
2013-06-01 20:02:00,73.0,73.0,29.79,SW,225,0.0,3.0,99,0.00,,,0.13,,2013-06-01 10:02:00,
2013-06-01 20:12:00,73.0,73.0,29.79,SW,225,0.0,3.0,99,0.00,,,0.13,,2013-06-01 10:12:00,
2013-06-01 20:22:00,72.0,72.0,29.81,WSW,243,0.0,4.0,99,0.00,,,0.13,,2013-06-01 10:22:00,
2013-06-01 20:32:00,72.0,72.0,29.81,SW,229,1.0,4.0,99,0.00,,,0.13,,2013-06-01 10:32:00,
2013-06-01 20:42:00,72.0,72.0,29.81,SW,229,1.0,4.0,99,0.00,,,0.13,,2013-06-01 10:42:00,
2013-06-01 20:52:00,73.0,73.0,29.81,SW,234,0.0,2.0,99,0.00,,,0.13,,2013-06-01 10:52:00,
2013-06-01 21:02:00,73.0,73.0,29.81,SW,225,1.0,2.0,99,0.00,,,0.13,,2013-06-01 11:02:00,
2013-06-01 21:11:00,73.0,73.0,29.81,SW,225,1.0,2.0,99,0.00,,,0.13,,2013-06-01 11:11:00,
2013-06-01 21:21:00,72.0,72.0,29.81,WSW,237,0.0,4.0,99,0.00,,,0.13,,2013-06-01 11:21:00,
2013-06-01 21:32:00,72.0,72.0,29.81,WSW,237,0.0,4.0,99,0.00,,,0.13,,2013-06-01 11:32:00,
2013-06-01 21:42:00,72.0,72.0,29.81,WSW,237,0.0,4.0,99,0.00,,,0.13,,2013-06-01 11:42:00,
2013-06-01 21:52:00,72.0,72.0,29.80,SW,232,1.0,5.0,99,0.00,,,0.13,,2013-06-01 11:52:00,
2013-06-01 22:01:00,73.0,73.0,29.80,SW,235,1.0,4.0,99,0.00,,,0.13,,2013-06-01 12:01:00,
2013-06-01 22:11:00,73.0,73.0,29.80,SW,235,1.0,4.0,99,0.00,,,0.13,,2013-06-01 12:11:00,
2013-06-01 22:21:00,73.0,73.0,29.81,SW,229,1.0,5.0,99,0.00,,,0.13,,2013-06-01 12:21:00,
2013-06-01 22:32:00,72.0,72.0,29.80,SW,225,0.0,1.0,99,0.00,,,0.13,,2013-06-01 12:32:00,
2013-06-01 22:41:00,72.0,72.0,29.80,SW,225,0.0,1.0,99,0.00,,,0.13,,2013-06-01 12:41:00,
2013-06-01 22:52:00,71.0,71.0,29.81,SW,233,1.0,3.0,99,0.01,,,0.14,,2013-06-01 12:52:00,
2013-06-01 23:01:00,71.0,71.0,29.80,SW,225,0.0,2.0,99,0.01,,,0.14,,2013-06-01 13:01:00,
2013-06-01 23:11:00,71.0,71.0,29.80,SW,225,0.0,2.0,99,0.01,,,0.14,,2013-06-01 13:11:00,
2013-06-01 23:22:00,71.0,71.0,29.80,SW,225,0.0,2.0,99,0.01,,,0.14,,2013-06-01 13:22:00,
2013-06-01 23:32:00,71.0,71.0,29.80,SW,225,0.0,2.0,99,0.01,,,0.14,,2013-06-01 13:32:00,
2013-06-01 23:42:00,70.0,70.0,29.78,SW,225,0.0,1.0,99,0.00,,,0.14,,2013-06-01 13:42:00,
2013-06-01 23:52:00,70.0,70.0,29.78,SW,225,0.0,1.0,99,0.00,,,0.14,,2013-06-01 13:52:00,